Time;durP1;ratioP1;P1;durP2;ratioP2;P2;SDS_P1;SDS_P2;PMS_P1;PMS_P2;Temp;Humidity;BMP_temperature;BMP_pressure;BME280_temperature;BME280_humidity;BME280_pressure;Samples;Min_cycle;Max_cycle;Signal;HPM_P1;HPM_P2
2023/05/23 00:00:59;;;;;;;2.65;2.45;;;23.70;51.10;;;;;;5072996;28;20135;-60
2023/05/23 00:03:27;;;;;;;3.30;3.00;;;23.70;51.20;;;;;;5071753;28;20484;-59
2023/05/23 00:05:55;;;;;;;3.30;2.97;;;23.70;51.20;;;;;;5072487;28;20413;-60
2023/05/23 00:08:22;;;;;;;3.33;3.03;;;23.70;51.20;;;;;;5073149;28;20091;-59
2023/05/23 00:10:49;;;;;;;3.28;2.97;;;23.70;51.30;;;;;;5072975;28;20049;-59
2023/05/23 00:13:17;;;;;;;2.88;2.53;;;23.70;51.20;;;;;;5073124;28;20127;-59
2023/05/23 00:15:45;;;;;;;3.10;2.80;;;23.70;51.30;;;;;;5072786;28;20052;-59
2023/05/23 00:18:12;;;;;;;3.65;2.72;;;23.70;51.30;;;;;;5073510;28;20078;-59
2023/05/23 00:20:44;;;;;;;4.03;2.80;;;23.70;51.30;;;;;;5073098;28;20412;-59
2023/05/23 00:23:17;;;;;;;2.45;2.30;;;23.70;51.30;;;;;;5071885;28;20053;-59
2023/05/23 00:25:51;;;;;;;3.33;2.95;;;23.70;51.30;;;;;;5073030;28;20428;-60
2023/05/23 00:28:19;;;;;;;3.13;2.90;;;23.70;51.30;;;;;;5070837;28;20543;-59
2023/05/23 00:30:50;;;;;;;3.20;2.80;;;23.70;51.20;;;;;;5072271;28;20123;-59
2023/05/23 00:33:20;;;;;;;4.13;2.80;;;23.70;51.30;;;;;;5072768;28;20052;-59
2023/05/23 00:35:48;;;;;;;;;;;23.70;51.20;;;;;;5072884;28;20197;-59
2023/05/23 00:38:16;;;;;;;2.97;2.55;;;23.70;51.20;;;;;;5071897;28;19920;-59
2023/05/23 00:40:43;;;;;;;2.97;2.78;;;23.60;51.10;;;;;;5072402;28;20091;-60
2023/05/23 00:43:11;;;;;;;3.50;2.88;;;23.60;51.20;;;;;;5072845;28;20052;-59
2023/05/23 00:45:38;;;;;;;3.08;2.80;;;23.60;51.20;;;;;;5054563;28;20048;-59
2023/05/23 00:48:07;;;;;;;3.05;2.83;;;23.60;51.20;;;;;;5071038;28;20505;-58
2023/05/23 00:50:35;;;;;;;2.70;2.50;;;23.60;51.20;;;;;;5070213;28;20461;-59
2023/05/23 00:53:03;;;;;;;2.97;2.78;;;23.60;51.20;;;;;;5071666;28;20131;-59
2023/05/23 00:55:32;;;;;;;3.03;2.80;;;23.60;51.20;;;;;;5072052;28;20131;-59
2023/05/23 00:57:59;;;;;;;3.03;2.78;;;23.60;51.20;;;;;;5072730;28;20415;-59
2023/05/23 01:00:27;;;;;;;2.83;2.60;;;23.60;51.20;;;;;;5072679;28;20044;-60
2023/05/23 01:02:55;;;;;;;3.13;2.78;;;23.60;51.30;;;;;;5072552;28;20055;-59
2023/05/23 01:05:23;;;;;;;4.60;2.75;;;23.60;51.30;;;;;;5072144;28;20443;-59
2023/05/23 01:07:51;;;;;;;3.95;2.80;;;23.60;51.30;;;;;;5070710;28;20409;-59
2023/05/23 01:10:23;;;;;;;2.80;2.60;;;23.60;51.90;;;;;;5072122;28;20045;-59
2023/05/23 01:13:15;;;;;;;2.90;2.70;;;23.60;51.30;;;;;;5072180;28;20053;-59
2023/05/23 01:16:13;;;;;;;2.75;2.55;;;23.60;51.30;;;;;;5069995;28;20097;-59
2023/05/23 01:18:49;;;;;;;2.72;2.53;;;23.60;51.40;;;;;;5072344;28;20144;-59
2023/05/23 01:21:18;;;;;;;3.10;2.80;;;23.60;51.40;;;;;;5071715;28;20074;-59
2023/05/23 01:24:19;;;;;;;2.95;2.75;;;23.60;51.40;;;;;;5072301;28;20067;-59
2023/05/23 01:27:26;;;;;;;2.88;2.67;;;23.50;51.30;;;;;;5071969;28;20072;-59
2023/05/23 01:29:57;;;;;;;2.75;2.55;;;23.50;51.30;;;;;;5071004;28;20083;-59
2023/05/23 01:32:26;;;;;;;2.65;2.45;;;23.50;51.40;;;;;;5070929;28;20040;-59
2023/05/23 01:34:54;;;;;;;4.25;2.53;;;23.50;51.40;;;;;;5071635;28;20056;-59
2023/05/23 01:37:21;;;;;;;3.20;2.90;;;23.50;51.40;;;;;;5071469;28;20045;-59
2023/05/23 01:39:48;;;;;;;2.72;2.53;;;23.50;51.40;;;;;;5072437;28;20088;-59
2023/05/23 01:42:15;;;;;;;2.83;2.63;;;23.50;51.50;;;;;;5071764;28;20500;-59
2023/05/23 01:44:45;;;;;;;3.40;2.90;;;23.50;51.50;;;;;;5071372;28;20079;-59
2023/05/23 01:47:14;;;;;;;2.53;2.33;;;23.50;51.50;;;;;;5071626;28;20432;-59
2023/05/23 01:49:43;;;;;;;2.80;2.45;;;23.50;51.60;;;;;;5071470;28;20052;-60
2023/05/23 01:52:12;;;;;;;2.97;2.78;;;23.40;51.50;;;;;;5072158;28;20052;-59
2023/05/23 01:54:42;;;;;;;2.60;2.40;;;23.40;51.50;;;;;;5071094;28;20489;-59
2023/05/23 01:57:09;;;;;;;;;;;23.50;51.60;;;;;;5072106;28;20497;-60
2023/05/23 01:59:37;;;;;;;3.53;2.92;;;23.40;51.60;;;;;;5069034;28;19960;-59
2023/05/23 02:02:05;;;;;;;2.72;2.53;;;23.40;51.60;;;;;;5051318;28;20072;-60
2023/05/23 02:04:32;;;;;;;2.80;2.60;;;23.40;51.60;;;;;;5052748;28;20083;-59
2023/05/23 02:06:59;;;;;;;2.40;2.25;;;23.40;51.60;;;;;;5054614;28;20049;-59
2023/05/23 02:09:27;;;;;;;2.78;2.58;;;23.50;51.60;;;;;;5056212;28;20103;-59
2023/05/23 02:11:54;;;;;;;2.42;2.22;;;23.40;51.60;;;;;;5055501;28;20080;-60
2023/05/23 02:14:22;;;;;;;2.67;2.47;;;23.40;51.50;;;;;;5054898;28;20053;-59
2023/05/23 02:16:51;;;;;;;3.00;2.70;;;23.40;51.50;;;;;;5055562;28;20055;-59
2023/05/23 02:19:18;;;;;;;2.28;2.13;;;23.40;51.50;;;;;;5054958;28;20053;-60
2023/05/23 02:21:46;;;;;;;2.90;2.67;;;23.40;51.40;;;;;;5055115;28;20087;-59
2023/05/23 02:24:14;;;;;;;2.80;2.55;;;23.50;51.50;;;;;;5055579;28;20393;-59
2023/05/23 02:26:41;;;;;;;2.50;2.33;;;23.40;51.40;;;;;;5054681;28;20456;-59
2023/05/23 02:29:08;;;;;;;2.63;2.42;;;23.40;51.40;;;;;;5054622;28;20453;-59
2023/05/23 02:31:35;;;;;;;2.63;2.40;;;23.40;51.40;;;;;;5055173;28;20060;-59
2023/05/23 02:34:02;;;;;;;2.67;2.33;;;23.40;51.50;;;;;;5054399;28;20045;-59
2023/05/23 02:36:32;;;;;;;2.60;2.40;;;23.40;51.50;;;;;;5054251;28;20091;-59
2023/05/23 02:38:59;;;;;;;3.07;2.77;;;23.40;51.50;;;;;;5054238;28;20585;-60
2023/05/23 02:41:26;;;;;;;3.53;2.17;;;23.40;51.50;;;;;;5054187;28;20555;-59
2023/05/23 02:43:53;;;;;;;2.72;2.53;;;23.40;52.10;;;;;;5054260;28;20044;-59
2023/05/23 02:46:21;;;;;;;2.53;2.33;;;23.40;51.50;;;;;;5055122;28;20080;-59
2023/05/23 02:48:48;;;;;;;2.72;2.30;;;23.40;51.60;;;;;;5054588;28;20386;-59
2023/05/23 02:51:15;;;;;;;2.83;2.63;;;23.40;51.50;;;;;;5055224;28;20049;-59
2023/05/23 02:53:42;;;;;;;3.53;2.83;;;23.40;52.10;;;;;;5054425;28;20091;-60
2023/05/23 02:56:10;;;;;;;2.75;2.55;;;23.40;51.60;;;;;;5053955;28;20489;-59
2023/05/23 02:58:38;;;;;;;2.40;2.20;;;23.40;51.60;;;;;;5054673;28;20084;-59
2023/05/23 03:01:07;;;;;;;2.85;2.55;;;23.40;51.60;;;;;;5054348;28;20085;-59
2023/05/23 03:03:34;;;;;;;3.10;2.80;;;23.30;51.50;;;;;;5054328;28;20124;-59
2023/05/23 03:06:05;;;;;;;2.83;2.63;;;23.30;51.60;;;;;;5054294;28;20135;-59
2023/05/23 03:08:32;;;;;;;2.65;2.25;;;23.30;51.60;;;;;;5054026;28;20075;-59
2023/05/23 03:10:59;;;;;;;2.70;2.50;;;23.30;51.50;;;;;;5053137;28;20075;-59
2023/05/23 03:13:27;;;;;;;2.35;2.22;;;23.30;51.60;;;;;;5054010;28;20045;-59
2023/05/23 03:15:54;;;;;;;3.25;2.60;;;23.30;51.60;;;;;;5053075;28;20136;-59
2023/05/23 03:18:21;;;;;;;2.40;2.20;;;23.30;51.50;;;;;;5054025;28;20052;-59
2023/05/23 03:20:49;;;;;;;2.35;2.25;;;23.30;51.50;;;;;;5053050;28;20102;-59
2023/05/23 03:23:16;;;;;;;2.78;2.58;;;23.30;51.50;;;;;;5052267;28;20501;-59
2023/05/23 03:25:43;;;;;;;2.55;2.35;;;23.30;51.60;;;;;;5053993;28;20049;-59
2023/05/23 03:28:11;;;;;;;2.28;2.08;;;23.30;51.60;;;;;;5054443;28;20055;-59
2023/05/23 03:30:38;;;;;;;3.83;2.30;;;23.40;51.60;;;;;;5053220;28;20049;-59
2023/05/23 03:33:06;;;;;;;2.47;2.28;;;23.30;51.60;;;;;;5053456;28;20473;-59
2023/05/23 03:35:33;;;;;;;5.55;2.33;;;23.40;51.70;;;;;;5053807;28;20076;-59
2023/05/23 03:38:00;;;;;;;2.42;2.22;;;23.40;51.70;;;;;;5053926;28;20048;-59
2023/05/23 03:40:27;;;;;;;2.55;2.35;;;23.40;51.70;;;;;;5055018;28;20501;-59
2023/05/23 03:43:05;;;;;;;2.25;2.15;;;23.40;51.60;;;;;;5053797;28;20448;-59
2023/05/23 03:45:33;;;;;;;2.13;2.03;;;23.40;51.50;;;;;;5053561;28;20063;-59
2023/05/23 03:48:00;;;;;;;2.70;2.50;;;23.40;51.50;;;;;;5052660;28;20088;-59
2023/05/23 03:50:27;;;;;;;2.22;2.03;;;23.40;51.50;;;;;;5053417;28;20143;-59
2023/05/23 03:52:55;;;;;;;3.03;2.72;;;23.50;51.50;;;;;;5053967;28;20092;-59
2023/05/23 03:55:24;;;;;;;3.00;2.45;;;23.50;51.40;;;;;;5052425;28;20052;-59
2023/05/23 03:57:51;;;;;;;2.20;2.10;;;23.50;51.30;;;;;;5052783;28;20472;-58
2023/05/23 04:00:18;;;;;;;3.03;2.35;;;23.50;51.20;;;;;;5052820;28;20049;-59
2023/05/23 04:02:46;;;;;;;2.58;2.38;;;23.50;51.20;;;;;;5053254;28;20060;-59
2023/05/23 04:05:13;;;;;;;2.20;2.00;;;23.50;51.10;;;;;;5052813;28;20124;-60
2023/05/23 04:07:41;;;;;;;2.13;2.03;;;23.60;51.10;;;;;;5066606;28;20048;-59
2023/05/23 04:10:09;;;;;;;2.03;1.92;;;23.60;51.00;;;;;;5072594;28;20048;-59
2023/05/23 04:12:37;;;;;;;2.03;1.92;;;23.60;50.90;;;;;;5072964;28;20052;-59
2023/05/23 04:15:04;;;;;;;2.45;2.25;;;23.60;50.90;;;;;;5072409;28;20048;-59
2023/05/23 04:17:32;;;;;;;2.53;2.33;;;23.70;50.80;;;;;;5072761;28;20455;-59
2023/05/23 04:19:59;;;;;;;2.47;2.20;;;23.70;50.80;;;;;;5071679;28;20063;-59
2023/05/23 04:22:26;;;;;;;2.00;1.90;;;23.70;50.70;;;;;;5072459;28;20096;-59
2023/05/23 04:24:53;;;;;;;2.40;2.30;;;23.70;50.60;;;;;;5072450;28;20044;-59
2023/05/23 04:27:21;;;;;;;2.47;2.33;;;23.70;50.60;;;;;;5075923;28;20130;-59
2023/05/23 04:29:48;;;;;;;2.42;2.22;;;23.70;50.50;;;;;;5083317;28;20048;-59
2023/05/23 04:32:17;;;;;;;1.95;1.75;;;23.80;50.50;;;;;;5092715;28;20094;-59
2023/05/23 04:34:44;;;;;;;2.17;2.08;;;23.80;50.50;;;;;;5076197;28;20124;-59
2023/05/23 04:37:11;;;;;;;2.78;2.58;;;23.80;50.40;;;;;;5066243;28;20059;-59
2023/05/23 04:39:38;;;;;;;2.45;2.25;;;23.80;50.40;;;;;;5071913;28;20117;-59
2023/05/23 04:42:06;;;;;;;3.28;2.70;;;23.90;50.30;;;;;;5072447;28;20056;-59
2023/05/23 04:44:36;;;;;;;1.95;1.85;;;23.90;50.30;;;;;;5073227;28;20056;-60
2023/05/23 04:47:03;;;;;;;3.45;2.70;;;23.90;50.30;;;;;;5072789;28;20394;-59
2023/05/23 04:49:33;;;;;;;2.70;2.50;;;23.90;50.30;;;;;;5070623;28;20098;-59
2023/05/23 04:52:00;;;;;;;2.67;2.47;;;23.90;50.30;;;;;;5070704;28;20409;-59
2023/05/23 04:54:27;;;;;;;2.70;2.22;;;23.90;50.30;;;;;;5072217;28;20040;-59
2023/05/23 04:56:54;;;;;;;2.97;2.78;;;23.90;50.20;;;;;;5071702;28;20048;-59
2023/05/23 04:59:21;;;;;;;3.25;2.97;;;24.00;50.30;;;;;;5071287;28;20044;-61
2023/05/23 05:01:48;;;;;;;3.20;2.47;;;24.00;50.30;;;;;;5064151;28;20059;-59
2023/05/23 05:04:15;;;;;;;3.22;2.92;;;24.00;50.20;;;;;;5051806;28;20044;-59
2023/05/23 05:06:43;;;;;;;3.08;2.60;;;24.00;50.20;;;;;;5051766;28;20048;-59
2023/05/23 05:09:10;;;;;;;2.65;2.45;;;24.10;50.20;;;;;;5067216;28;20127;-58
2023/05/23 05:11:37;;;;;;;2.92;2.67;;;24.10;50.20;;;;;;5067743;28;20428;-58
2023/05/23 05:14:04;;;;;;;3.05;2.85;;;24.10;50.10;;;;;;5069308;28;20411;-58
2023/05/23 05:16:32;;;;;;;2.55;2.35;;;24.10;50.20;;;;;;5071048;28;20044;-57
2023/05/23 05:18:59;;;;;;;2.70;2.50;;;24.20;50.00;;;;;;5072555;28;20045;-58
2023/05/23 05:21:26;;;;;;;3.35;3.05;;;24.20;50.00;;;;;;5070707;28;20051;-63
2023/05/23 05:23:53;;;;;;;2.72;2.53;;;24.20;49.90;;;;;;5062825;28;20159;-58
2023/05/23 05:26:23;;;;;;;2.58;2.30;;;24.30;49.90;;;;;;5063745;28;20069;-60
2023/05/23 05:28:55;;;;;;;3.67;2.70;;;24.30;50.00;;;;;;5065143;28;20131;-60
2023/05/23 05:31:22;;;;;;;4.68;2.90;;;24.30;49.90;;;;;;5058637;28;20054;-61
2023/05/23 05:33:49;;;;;;;2.72;2.53;;;24.40;49.90;;;;;;5061707;28;20515;-62
2023/05/23 05:36:18;;;;;;;3.25;2.67;;;24.40;49.90;;;;;;5063630;28;20390;-59
2023/05/23 05:38:45;;;;;;;2.65;2.45;;;24.40;49.90;;;;;;5067235;28;20051;-62
2023/05/23 05:41:13;;;;;;;3.22;2.92;;;24.50;49.80;;;;;;5062778;28;20056;-60
2023/05/23 05:43:40;;;;;;;3.35;2.60;;;24.50;49.70;;;;;;5066151;28;20049;-58
2023/05/23 05:46:07;;;;;;;2.70;2.50;;;24.50;49.60;;;;;;5077795;28;21273;-58
2023/05/23 05:48:34;;;;;;;3.03;2.75;;;24.50;49.50;;;;;;5070250;28;20044;-58
2023/05/23 05:51:02;;;;;;;2.70;2.50;;;24.60;49.50;;;;;;5065367;28;20095;-58
2023/05/23 05:53:29;;;;;;;3.08;2.45;;;24.60;49.60;;;;;;5064734;28;20087;-59
2023/05/23 05:55:56;;;;;;;3.70;2.67;;;24.60;49.60;;;;;;5063574;28;20099;-59
2023/05/23 05:58:23;;;;;;;3.42;2.95;;;24.70;49.70;;;;;;5067358;28;20482;-59
2023/05/23 06:00:52;;;;;;;3.40;3.10;;;24.70;49.70;;;;;;5066542;28;20048;-58
2023/05/23 06:03:19;;;;;;;3.47;3.17;;;24.70;49.60;;;;;;5062715;28;20064;-58
2023/05/23 06:05:46;;;;;;;3.55;3.20;;;24.70;49.70;;;;;;5064354;28;20136;-62
2023/05/23 06:08:14;;;;;;;5.90;3.63;;;24.80;49.80;;;;;;5069595;28;20147;-60
2023/05/23 06:10:41;;;;;;;7.05;3.42;;;24.80;49.70;;;;;;5069091;28;20041;-59
2023/05/23 06:13:09;;;;;;;3.90;3.50;;;24.90;49.80;;;;;;5065612;28;20143;-58
2023/05/23 06:15:36;;;;;;;4.22;3.75;;;24.90;50.10;;;;;;5069426;28;20083;-59
2023/05/23 06:18:04;;;;;;;4.40;3.72;;;24.90;49.80;;;;;;5070956;28;20143;-58
2023/05/23 06:20:31;;;;;;;7.47;4.00;;;24.90;49.90;;;;;;5065688;28;20573;-58
2023/05/23 06:22:59;;;;;;;6.25;4.10;;;24.90;49.80;;;;;;5065344;28;20493;-59
2023/05/23 06:25:26;;;;;;;6.07;4.03;;;24.90;49.90;;;;;;5062121;28;20068;-59
2023/05/23 06:27:53;;;;;;;7.50;4.00;;;24.90;50.00;;;;;;5069983;28;20079;-59
2023/05/23 06:30:22;;;;;;;3.67;3.30;;;25.00;50.10;;;;;;5068614;28;20542;-59
2023/05/23 06:32:49;;;;;;;4.95;3.78;;;25.00;49.90;;;;;;5064856;28;20200;-58
2023/05/23 06:35:16;;;;;;;7.05;3.97;;;25.00;49.80;;;;;;5065892;28;20132;-61
2023/05/23 06:37:44;;;;;;;5.20;4.10;;;25.00;49.90;;;;;;5068236;28;20485;-59
2023/05/23 06:40:13;;;;;;;5.78;4.25;;;25.00;49.70;;;;;;5065606;28;20052;-62
2023/05/23 06:42:40;;;;;;;4.63;4.22;;;25.00;49.80;;;;;;5067716;28;20044;-58
2023/05/23 06:45:08;;;;;;;6.03;3.95;;;25.10;49.90;;;;;;5065304;28;20044;-57
2023/05/23 06:47:35;;;;;;;5.90;4.00;;;25.10;50.00;;;;;;5068593;28;20127;-58
2023/05/23 06:50:03;;;;;;;4.63;4.18;;;25.10;50.00;;;;;;5062919;28;20048;-59
2023/05/23 06:52:30;;;;;;;5.85;4.32;;;25.10;49.90;;;;;;5064550;28;20044;-59
2023/05/23 06:54:58;;;;;;;4.93;3.95;;;25.10;49.80;;;;;;5066491;28;20443;-60
2023/05/23 06:57:25;;;;;;;9.13;4.47;;;25.20;49.90;;;;;;5078151;28;20094;-60
2023/05/23 06:59:52;;;;;;;4.00;3.58;;;25.20;49.80;;;;;;5066773;28;20552;-59
2023/05/23 07:02:19;;;;;;;4.93;3.70;;;25.20;49.80;;;;;;5069831;28;20485;-60
2023/05/23 07:04:46;;;;;;;4.13;3.72;;;25.20;49.80;;;;;;5063156;28;20048;-61
2023/05/23 07:07:14;;;;;;;9.43;5.18;;;25.30;49.80;;;;;;5069390;28;20098;-58
2023/05/23 07:09:41;;;;;;;4.50;3.90;;;25.30;49.70;;;;;;5068168;28;20075;-58
2023/05/23 07:12:09;;;;;;;6.57;4.18;;;25.30;49.70;;;;;;5066289;28;20056;-58
2023/05/23 07:14:37;;;;;;;4.57;4.10;;;25.40;49.70;;;;;;5067069;28;20136;-63
2023/05/23 07:17:04;;;;;;;6.55;3.85;;;25.40;49.70;;;;;;5066576;28;20045;-63
2023/05/23 07:19:31;;;;;;;6.18;4.55;;;25.40;49.70;;;;;;5069259;28;20045;-66
2023/05/23 07:21:58;;;;;;;6.60;4.50;;;25.50;49.70;;;;;;5065192;28;20059;-62
2023/05/23 07:24:26;;;;;;;5.97;4.57;;;25.50;49.50;;;;;;5066419;28;20114;-63
2023/05/23 07:26:53;;;;;;;5.60;3.92;;;25.50;49.40;;;;;;5065022;28;20558;-61
2023/05/23 07:29:20;;;;;;;8.85;4.97;;;25.60;49.40;;;;;;5067384;28;20041;-61
2023/05/23 07:31:48;;;;;;;6.20;4.45;;;25.60;49.20;;;;;;5065636;28;20113;-60
2023/05/23 07:34:15;;;;;;;5.90;4.00;;;25.60;48.80;;;;;;5065412;28;20052;-60
2023/05/23 07:36:42;;;;;;;6.05;4.28;;;25.70;49.00;;;;;;5065735;28;20353;-59
2023/05/23 07:39:09;;;;;;;4.75;4.25;;;25.70;49.00;;;;;;5068353;28;20052;-60
2023/05/23 07:41:36;;;;;;;5.03;4.40;;;25.70;48.70;;;;;;5070119;28;20053;-59
2023/05/23 07:44:04;;;;;;;6.35;5.10;;;25.70;48.60;;;;;;5067006;28;20068;-60
2023/05/23 07:46:31;;;;;;;4.13;3.78;;;25.70;48.30;;;;;;5064344;28;20051;-59
2023/05/23 07:48:58;;;;;;;5.82;4.65;;;25.70;48.40;;;;;;5063951;28;20052;-63
2023/05/23 07:51:25;;;;;;;7.00;4.75;;;25.70;48.30;;;;;;5066649;28;20437;-67
2023/05/23 07:53:52;;;;;;;5.10;3.95;;;25.80;48.00;;;;;;5069075;28;20044;-61
2023/05/23 07:56:21;;;;;;;6.40;4.68;;;25.80;48.00;;;;;;5067383;28;20083;-61
2023/05/23 07:58:49;;;;;;;9.55;4.47;;;25.80;47.90;;;;;;5069732;28;20075;-60
2023/05/23 08:01:17;;;;;;;6.97;3.85;;;25.80;47.30;;;;;;5067317;28;20416;-60
2023/05/23 08:03:44;;;;;;;5.93;4.45;;;25.80;47.80;;;;;;5067681;28;20450;-60
2023/05/23 08:06:11;;;;;;;7.28;4.47;;;25.80;47.80;;;;;;5064020;28;20515;-61
2023/05/23 08:08:40;;;;;;;5.70;4.88;;;25.80;47.50;;;;;;5065816;28;20044;-63
2023/05/23 08:11:07;;;;;;;4.85;4.35;;;25.90;46.80;;;;;;5066459;28;20093;-58
2023/05/23 08:13:34;;;;;;;6.38;5.45;;;25.90;46.70;;;;;;5067196;28;20040;-60
2023/05/23 08:16:01;;;;;;;4.78;4.13;;;25.90;47.10;;;;;;5063908;28;20139;-61
2023/05/23 08:18:29;;;;;;;7.20;4.72;;;25.90;47.30;;;;;;5064938;28;20386;-59
2023/05/23 08:20:57;;;;;;;6.50;4.28;;;25.90;47.30;;;;;;5064427;28;20052;-61
2023/05/23 08:23:24;;;;;;;5.53;4.85;;;25.90;47.30;;;;;;5062069;28;20056;-60
2023/05/23 08:25:52;;;;;;;6.70;4.20;;;25.90;47.30;;;;;;5065266;28;20048;-63
2023/05/23 08:28:19;;;;;;;5.70;4.18;;;26.00;47.50;;;;;;5063113;28;20053;-63
2023/05/23 08:30:46;;;;;;;7.93;4.40;;;26.00;47.40;;;;;;5064359;28;20076;-62
2023/05/23 08:33:14;;;;;;;5.20;4.10;;;26.00;47.30;;;;;;5066549;28;20549;-61
2023/05/23 08:35:41;;;;;;;7.88;4.22;;;26.00;47.20;;;;;;5061989;28;20125;-61
2023/05/23 08:38:09;;;;;;;5.82;4.88;;;26.00;47.10;;;;;;5064310;28;20090;-63
2023/05/23 08:40:36;;;;;;;5.82;4.82;;;26.00;47.00;;;;;;5060622;28;20044;-60
2023/05/23 08:43:03;;;;;;;6.43;4.25;;;26.00;46.70;;;;;;5063045;28;20155;-62
2023/05/23 08:45:33;;;;;;;5.07;4.57;;;26.10;46.50;;;;;;5065911;28;20056;-61
2023/05/23 08:48:01;;;;;;;5.05;4.03;;;26.00;46.40;;;;;;5061833;28;20087;-61
2023/05/23 08:50:29;;;;;;;8.40;4.72;;;26.10;46.70;;;;;;5059901;28;20139;-61
2023/05/23 08:52:58;;;;;;;4.25;3.85;;;26.10;46.50;;;;;;5060878;28;20113;-60
2023/05/23 08:55:27;;;;;;;7.65;4.55;;;26.10;46.50;;;;;;5064488;28;20527;-60
2023/05/23 08:57:56;;;;;;;7.70;4.78;;;26.10;46.10;;;;;;5066995;28;20098;-61
2023/05/23 09:00:26;;;;;;;5.57;4.47;;;26.10;46.10;;;;;;5066432;28;20079;-61
2023/05/23 09:02:53;;;;;;;6.03;4.32;;;26.10;46.30;;;;;;5061858;28;20049;-60
2023/05/23 09:05:21;;;;;;;7.40;4.45;;;26.10;46.10;;;;;;5062393;28;20040;-60
2023/05/23 09:07:53;;;;;;;6.10;4.57;;;26.10;45.90;;;;;;5065640;28;20048;-59
2023/05/23 09:10:21;;;;;;;7.90;4.07;;;26.10;45.60;;;;;;5066302;28;20123;-60
2023/05/23 09:12:48;;;;;;;4.93;4.50;;;26.10;45.80;;;;;;5067937;28;20118;-60
2023/05/23 09:15:16;;;;;;;5.70;4.60;;;26.20;45.70;;;;;;5065161;28;20045;-60
2023/05/23 09:17:44;;;;;;;5.63;4.40;;;26.20;45.70;;;;;;5064037;28;20053;-60
2023/05/23 09:20:14;;;;;;;7.35;4.50;;;26.20;45.60;;;;;;5065422;28;20044;-58
2023/05/23 09:22:46;;;;;;;5.65;4.75;;;26.20;45.20;;;;;;5066299;28;20076;-58
2023/05/23 09:25:14;;;;;;;6.75;4.20;;;26.20;45.20;;;;;;5062134;28;20067;-60
2023/05/23 09:27:42;;;;;;;8.48;5.18;;;26.30;45.50;;;;;;5063753;28;20586;-59
2023/05/23 09:30:13;;;;;;;4.45;3.97;;;26.20;45.60;;;;;;5068569;28;20060;-59
2023/05/23 09:33:02;;;;;;;6.85;4.82;;;26.30;45.70;;;;;;5064589;28;20040;-62
2023/05/23 09:35:32;;;;;;;6.05;3.97;;;26.30;45.60;;;;;;5062708;28;20397;-59
2023/05/23 09:37:59;;;;;;;5.95;4.72;;;26.30;45.60;;;;;;5061705;28;20135;-61
2023/05/23 09:40:30;;;;;;;9.20;4.57;;;26.30;45.60;;;;;;5057967;28;20102;-60
2023/05/23 09:43:03;;;;;;;5.43;4.65;;;26.30;45.40;;;;;;5063964;28;20136;-59
2023/05/23 09:45:31;;;;;;;7.22;4.60;;;26.40;45.00;;;;;;5061892;28;20505;-62
2023/05/23 09:47:58;;;;;;;6.32;4.57;;;26.40;44.70;;;;;;5065578;28;20064;-60
2023/05/23 09:50:32;;;;;;;5.10;4.60;;;26.40;45.00;;;;;;5061533;28;20044;-60
2023/05/23 09:53:00;;;;;;;6.55;4.72;;;26.40;45.00;;;;;;5064754;28;20056;-62
2023/05/23 09:55:27;;;;;;;4.85;4.30;;;26.40;44.90;;;;;;5069096;28;20049;-61
2023/05/23 09:57:58;;;;;;;5.20;4.70;;;26.40;45.00;;;;;;5069030;28;20118;-61
2023/05/23 10:00:27;;;;;;;5.05;3.90;;;26.40;45.00;;;;;;5066560;28;20072;-61
2023/05/23 10:03:12;;;;;;;4.65;4.25;;;26.40;45.20;;;;;;5066079;28;20075;-59
2023/05/23 10:05:46;;;;;;;5.05;4.43;;;26.40;45.30;;;;;;5061106;28;20086;-59
2023/05/23 10:08:21;;;;;;;5.57;5.00;;;26.40;45.20;;;;;;5064000;28;20932;-60
2023/05/23 10:11:27;;;;;;;6.32;4.45;;;26.50;45.30;;;;;;5064366;28;20047;-61
2023/05/23 10:13:55;;;;;;;6.95;4.72;;;26.50;45.20;;;;;;5064454;28;20052;-58
2023/05/23 10:16:56;;;;;;;4.97;4.43;;;26.50;45.30;;;;;;5062870;28;20542;-58
2023/05/23 10:19:43;;;;;;;5.18;4.30;;;26.50;45.20;;;;;;5068879;28;20054;-58
2023/05/23 10:22:13;;;;;;;6.32;4.78;;;26.50;45.00;;;;;;5066349;28;20044;-58
2023/05/23 10:24:41;;;;;;;8.00;5.07;;;26.60;44.80;;;;;;5069768;28;20165;-60
2023/05/23 10:27:08;;;;;;;4.75;4.28;;;26.60;44.90;;;;;;5070722;28;20041;-59
2023/05/23 10:29:36;;;;;;;7.63;4.47;;;26.60;44.80;;;;;;5065454;28;20049;-61
2023/05/23 10:32:06;;;;;;;6.13;4.28;;;26.60;44.70;;;;;;5068313;28;20109;-61
2023/05/23 10:34:43;;;;;;;5.38;4.80;;;26.60;44.50;;;;;;5067884;28;20467;-61
2023/05/23 10:37:19;;;;;;;5.65;4.55;;;26.60;44.30;;;;;;5065529;28;20041;-62
2023/05/23 10:40:07;;;;;;;4.67;3.80;;;26.60;44.40;;;;;;5068105;28;20111;-60
2023/05/23 10:43:03;;;;;;;4.82;4.45;;;26.70;44.30;;;;;;5064318;28;20780;-60
2023/05/23 10:45:41;;;;;;;4.65;4.22;;;26.70;44.10;;;;;;5066005;28;20139;-59
2023/05/23 10:48:34;;;;;;;7.60;4.82;;;26.80;43.90;;;;;;5069179;28;20102;-62
2023/05/23 10:51:10;;;;;;;5.88;4.75;;;26.80;44.40;;;;;;5065995;28;20044;-62
2023/05/23 10:53:40;;;;;;;8.98;4.20;;;26.80;44.50;;;;;;5068874;28;20129;-61
2023/05/23 10:56:09;;;;;;;5.78;4.80;;;26.80;44.50;;;;;;5069613;28;20480;-62
2023/05/23 10:58:38;;;;;;;4.30;3.97;;;26.90;44.60;;;;;;5067126;28;20045;-62
2023/05/23 11:01:14;;;;;;;4.75;4.30;;;26.90;44.30;;;;;;5062755;28;20500;-62
2023/05/23 11:03:52;;;;;;;5.20;4.25;;;26.90;44.20;;;;;;5069727;28;20040;-58
2023/05/23 11:06:43;;;;;;;7.18;4.32;;;27.00;44.20;;;;;;5060880;28;21730;-60
2023/05/23 11:09:32;;;;;;;9.00;5.22;;;27.00;44.00;;;;;;5064773;28;20048;-60
2023/05/23 11:12:04;;;;;;;5.22;4.70;;;27.00;43.70;;;;;;5069883;28;20049;-60
2023/05/23 11:14:52;;;;;;;7.53;4.45;;;27.10;43.70;;;;;;5066248;28;20044;-61
2023/05/23 11:17:32;;;;;;;7.28;4.47;;;27.10;43.40;;;;;;5062827;28;20511;-60
2023/05/23 11:20:07;;;;;;;5.63;4.47;;;27.10;43.50;;;;;;5065417;28;20049;-61
2023/05/23 11:22:36;;;;;;;4.60;4.18;;;27.10;43.20;;;;;;5068277;28;20045;-60
2023/05/23 11:25:08;;;;;;;6.35;4.35;;;27.10;43.20;;;;;;5065937;28;20477;-59
2023/05/23 11:27:38;;;;;;;5.22;4.70;;;27.10;43.10;;;;;;5062455;28;20111;-60
2023/05/23 11:30:14;;;;;;;4.80;4.27;;;27.20;43.30;;;;;;5064396;28;20060;-59
2023/05/23 11:32:50;;;;;;;4.55;3.85;;;27.20;43.20;;;;;;5066038;28;20380;-61
2023/05/23 11:35:18;;;;;;;5.28;3.88;;;27.20;42.90;;;;;;5065573;28;20076;-61
2023/05/23 11:37:46;;;;;;;7.60;4.25;;;27.20;42.90;;;;;;5065807;28;20056;-62
2023/05/23 11:40:34;;;;;;;5.78;4.32;;;27.10;42.50;;;;;;5067827;28;20044;-61
2023/05/23 11:43:07;;;;;;;5.07;4.53;;;27.20;42.30;;;;;;5067506;28;20489;-60
2023/05/23 11:45:36;;;;;;;5.50;4.00;;;27.10;42.20;;;;;;5068266;28;20053;-60
2023/05/23 11:48:12;;;;;;;4.07;3.70;;;27.10;41.80;;;;;;5065472;28;20098;-60
2023/05/23 11:50:46;;;;;;;5.30;3.65;;;27.10;41.70;;;;;;5069678;28;20044;-61
2023/05/23 11:53:19;;;;;;;4.10;3.80;;;27.20;41.90;;;;;;5064803;28;20528;-61
2023/05/23 11:55:56;;;;;;;4.15;3.78;;;27.20;41.80;;;;;;5070428;28;20083;-59
2023/05/23 11:58:30;;;;;;;6.47;4.53;;;27.10;41.70;;;;;;5069144;28;20098;-60
2023/05/23 12:01:02;;;;;;;3.80;3.50;;;27.10;41.80;;;;;;5066420;28;20459;-61
2023/05/23 12:03:30;;;;;;;4.05;3.65;;;27.10;41.90;;;;;;5061322;28;20041;-61
2023/05/23 12:05:58;;;;;;;4.95;4.18;;;27.10;42.00;;;;;;5065532;28;20142;-61
2023/05/23 12:08:25;;;;;;;5.85;4.18;;;27.10;42.30;;;;;;5063924;28;20049;-61
2023/05/23 12:10:56;;;;;;;4.95;4.20;;;27.10;42.30;;;;;;5064908;28;20570;-60
2023/05/23 12:13:25;;;;;;;9.50;3.83;;;27.10;42.30;;;;;;5063291;28;20131;-60
2023/05/23 12:15:57;;;;;;;5.05;4.57;;;27.20;42.50;;;;;;5063630;28;20052;-60
2023/05/23 12:18:28;;;;;;;4.85;3.58;;;27.20;42.50;;;;;;5065376;28;20190;-61
2023/05/23 12:21:04;;;;;;;4.70;3.67;;;27.20;42.60;;;;;;5062069;28;20246;-60
2023/05/23 12:23:34;;;;;;;7.60;3.95;;;27.30;42.60;;;;;;5066065;28;20048;-60
2023/05/23 12:26:09;;;;;;;4.20;3.80;;;27.30;42.40;;;;;;5066807;28;21150;-61
2023/05/23 12:28:44;;;;;;;5.32;3.85;;;27.30;42.50;;;;;;5066943;28;20536;-60
2023/05/23 12:31:15;;;;;;;9.00;3.75;;;27.30;42.60;;;;;;5064883;28;20102;-59
2023/05/23 12:33:46;;;;;;;6.35;4.10;;;27.40;42.80;;;;;;5066082;28;20046;-59
2023/05/23 12:36:21;;;;;;;4.65;3.67;;;27.40;42.50;;;;;;5069201;28;20045;-59
2023/05/23 12:38:48;;;;;;;3.45;3.15;;;27.40;42.60;;;;;;5066731;28;20062;-60
2023/05/23 12:41:20;;;;;;;5.13;3.80;;;27.40;42.60;;;;;;5064300;28;20109;-59
2023/05/23 12:43:53;;;;;;;5.68;3.63;;;27.40;42.60;;;;;;5065826;28;20107;-59
2023/05/23 12:46:21;;;;;;;5.43;3.97;;;27.40;42.80;;;;;;5065333;28;20512;-59
2023/05/23 12:48:49;;;;;;;4.95;4.53;;;27.40;42.80;;;;;;5061668;28;20176;-59
2023/05/23 12:51:16;;;;;;;4.07;3.70;;;27.40;42.90;;;;;;5060454;28;20135;-59
2023/05/23 12:53:44;;;;;;;4.43;4.00;;;27.40;43.10;;;;;;5067955;28;20090;-59
2023/05/23 12:56:11;;;;;;;7.50;4.13;;;27.40;43.10;;;;;;5065478;28;20036;-61
2023/05/23 12:58:38;;;;;;;6.07;4.13;;;27.40;43.20;;;;;;5067659;28;20463;-62
2023/05/23 13:01:05;;;;;;;4.97;4.53;;;27.40;43.30;;;;;;5065161;28;20550;-59